Terminal Aerodrome Forecast
Issued by NWS Central Illinois

Home | Current Version | Previous Version | Text Only | Print | Product List | Glossary On
Versions: 1 2 3 4 5 6 7 8 9 10 11 12 13 14 15 16 17 18 19
000
FTUS43 KILX 211700
TAFPIA
TAF
KPIA 211733Z 2118/2218 22010KT P6SM SCT080 BKN150
     FM220000 19006KT P6SM BKN150
     FM220700 19006KT P6SM VCTS BKN080CB
     FM221300 23008KT P6SM SCT080 BKN250=

USA.gov is the U.S. government's official web portal to all federal, state and local government web resources and services.